Time;durP1;ratioP1;P1;durP2;ratioP2;P2;SDS_P1;SDS_P2;PMS_P1;PMS_P2;Temp;Humidity;BMP_temperature;BMP_pressure;BME280_temperature;BME280_humidity;BME280_pressure;Samples;Min_cycle;Max_cycle;Signal;HPM_P1;HPM_P2
2022/04/29 00:00:48;;;;;;;12.43;5.53;;;4.00;99.90;;;;;;5072873;28;20123;-42
2022/04/29 00:03:14;;;;;;;11.75;6.00;;;4.20;99.90;;;;;;5073282;28;20097;-42
2022/04/29 00:05:42;;;;;;;12.38;6.28;;;4.10;99.90;;;;;;5072473;28;20072;-43
2022/04/29 00:08:09;;;;;;;14.45;5.82;;;4.10;99.90;;;;;;5072577;28;20094;-43
2022/04/29 00:10:35;;;;;;;18.52;5.47;;;4.20;99.90;;;;;;5072564;28;20075;-43
2022/04/29 00:13:03;;;;;;;12.18;5.13;;;4.00;99.90;;;;;;5072953;28;20038;-43
2022/04/29 00:15:29;;;;;;;18.88;5.63;;;4.10;99.90;;;;;;5072844;28;20072;-42
2022/04/29 00:17:56;;;;;;;13.50;5.00;;;4.10;99.90;;;;;;5072509;28;20079;-42
2022/04/29 00:20:22;;;;;;;18.23;6.40;;;4.10;99.90;;;;;;5072632;28;20489;-42
2022/04/29 00:22:47;;;;;;;13.75;5.35;;;4.10;99.90;;;;;;5072639;28;20068;-43
2022/04/29 00:25:13;;;;;;;13.65;5.18;;;4.20;99.90;;;;;;5072443;28;20063;-44
2022/04/29 00:27:40;;;;;;;13.82;5.90;;;4.00;99.90;;;;;;5072069;28;20242;-43
2022/04/29 00:30:09;;;;;;;16.05;5.45;;;4.30;99.90;;;;;;5072389;28;20087;-44
2022/04/29 00:32:35;;;;;;;14.10;6.25;;;3.90;99.90;;;;;;5072669;28;20356;-42
2022/04/29 00:35:01;;;;;;;16.15;5.80;;;4.00;99.90;;;;;;5072279;28;20391;-43
2022/04/29 00:37:26;;;;;;;18.70;5.65;;;4.10;99.90;;;;;;5072002;28;20063;-42
2022/04/29 00:39:52;;;;;;;11.10;5.65;;;3.90;99.90;;;;;;5072244;28;20067;-42
2022/04/29 00:42:21;;;;;;;16.50;5.75;;;4.40;99.90;;;;;;5071713;28;20059;-42
2022/04/29 00:44:47;;;;;;;15.38;6.28;;;3.80;99.90;;;;;;5072054;28;20137;-42
2022/04/29 00:47:15;;;;;;;18.35;6.22;;;3.80;99.90;;;;;;5072248;28;20064;-43
2022/04/29 00:49:42;;;;;;;15.18;5.35;;;3.80;99.90;;;;;;5072012;28;20036;-42
2022/04/29 00:52:12;;;;;;;9.93;5.43;;;4.30;99.90;;;;;;5072056;28;20040;-42
2022/04/29 00:54:40;;;;;;;15.55;5.28;;;3.80;99.90;;;;;;5071967;28;20494;-43
2022/04/29 00:57:10;;;;;;;16.42;5.43;;;3.70;99.90;;;;;;5072420;28;20037;-43
2022/04/29 00:59:49;;;;;;;10.65;5.05;;;3.60;99.90;;;;;;5072084;28;20052;-43
2022/04/29 01:02:15;;;;;;;17.63;5.95;;;3.30;99.90;;;;;;5072592;28;20040;-43
2022/04/29 01:04:48;;;;;;;10.95;5.55;;;3.20;99.90;;;;;;5072126;28;20052;-43
2022/04/29 01:07:13;;;;;;;14.70;5.95;;;3.90;99.90;;;;;;5072224;28;20040;-42
2022/04/29 01:09:39;;;;;;;19.90;7.43;;;3.10;99.90;;;;;;5087293;28;20044;-42
2022/04/29 01:12:06;;;;;;;15.93;5.72;;;3.10;99.90;;;;;;5071761;28;20075;-43
2022/04/29 01:14:32;;;;;;;19.30;6.68;;;3.20;99.90;;;;;;5072113;28;20427;-43
2022/04/29 01:16:58;;;;;;;11.02;5.45;;;3.10;99.90;;;;;;5072029;28;20116;-42
2022/04/29 01:19:25;;;;;;;15.65;5.53;;;3.00;99.90;;;;;;5072155;28;20436;-43
2022/04/29 01:21:52;;;;;;;10.13;4.72;;;3.00;99.90;;;;;;5072365;28;20102;-45
2022/04/29 01:24:17;;;;;;;10.10;5.45;;;3.00;99.90;;;;;;5072185;28;20398;-44
2022/04/29 01:26:43;;;;;;;9.90;5.38;;;2.90;99.90;;;;;;5071969;28;20033;-42
2022/04/29 01:29:09;;;;;;;14.75;5.70;;;2.90;99.90;;;;;;5072352;28;20068;-43
2022/04/29 01:31:36;;;;;;;11.43;6.15;;;2.80;99.90;;;;;;5071653;28;20037;-42
2022/04/29 01:34:02;;;;;;;15.20;6.13;;;2.70;99.90;;;;;;5072007;28;20033;-43
2022/04/29 01:36:28;;;;;;;17.38;6.38;;;2.80;99.90;;;;;;5071701;28;20045;-42
2022/04/29 01:38:54;;;;;;;11.35;6.30;;;2.80;99.90;;;;;;5071622;28;20279;-42
2022/04/29 01:41:20;;;;;;;13.10;6.22;;;2.70;99.90;;;;;;5071941;28;20156;-43
2022/04/29 01:43:46;;;;;;;15.38;6.50;;;2.70;99.90;;;;;;5072013;28;20037;-43
2022/04/29 01:46:12;;;;;;;12.95;6.47;;;2.60;99.90;;;;;;5070419;28;20049;-42
2022/04/29 01:48:38;;;;;;;16.13;6.82;;;2.60;99.90;;;;;;5074979;28;20033;-43
2022/04/29 01:51:06;;;;;;;11.88;5.38;;;2.50;99.90;;;;;;5075626;28;20041;-42
2022/04/29 01:53:32;;;;;;;12.63;6.05;;;2.40;99.90;;;;;;5075439;28;20115;-43
2022/04/29 01:55:59;;;;;;;13.63;6.25;;;2.70;99.90;;;;;;5075410;28;20056;-43
2022/04/29 01:58:24;;;;;;;13.68;5.68;;;2.50;99.90;;;;;;5075679;28;20044;-43
2022/04/29 02:00:50;;;;;;;10.90;5.65;;;2.50;99.90;;;;;;5075486;28;20051;-46
2022/04/29 02:03:16;;;;;;;15.13;6.75;;;2.50;99.90;;;;;;5075193;28;20510;-43
2022/04/29 02:05:42;;;;;;;15.48;5.75;;;2.50;99.90;;;;;;5075049;28;20045;-42
2022/04/29 02:08:08;;;;;;;11.93;6.60;;;2.40;99.90;;;;;;5075315;28;20086;-43
2022/04/29 02:10:34;;;;;;;8.68;5.13;;;2.40;99.90;;;;;;5074972;28;20041;-43
2022/04/29 02:13:00;;;;;;;14.00;6.30;;;2.40;99.90;;;;;;5075273;28;20040;-44
2022/04/29 02:15:26;;;;;;;11.98;5.97;;;2.40;99.90;;;;;;5074926;28;20051;-43
2022/04/29 02:17:51;;;;;;;11.00;6.53;;;2.80;99.90;;;;;;5075217;28;20622;-43
2022/04/29 02:20:17;;;;;;;11.70;5.80;;;2.30;99.90;;;;;;5075047;28;20083;-43
2022/04/29 02:22:43;;;;;;;16.98;6.53;;;2.30;99.90;;;;;;5075155;28;20095;-42
2022/04/29 02:25:09;;;;;;;12.85;6.60;;;2.20;99.90;;;;;;5074587;28;20053;-42
2022/04/29 02:27:36;;;;;;;11.23;6.43;;;2.20;99.90;;;;;;5075176;28;20032;-43
2022/04/29 02:30:03;;;;;;;17.98;6.10;;;2.20;99.90;;;;;;5074980;28;20043;-42
2022/04/29 02:32:29;;;;;;;12.95;5.53;;;2.10;99.90;;;;;;5075112;28;20048;-42
2022/04/29 02:34:55;;;;;;;10.32;5.50;;;2.10;99.90;;;;;;5073840;28;20090;-43
2022/04/29 02:37:21;;;;;;;13.27;6.25;;;2.10;99.90;;;;;;5074682;28;20193;-42
2022/04/29 02:39:46;;;;;;;9.05;4.53;;;2.00;99.90;;;;;;5074535;28;20050;-42
2022/04/29 02:42:12;;;;;;;7.68;4.57;;;2.00;99.90;;;;;;5074975;28;20473;-43
2022/04/29 02:44:38;;;;;;;8.85;4.93;;;2.10;99.90;;;;;;5074564;28;20044;-42
2022/04/29 02:47:09;;;;;;;11.75;4.88;;;2.00;99.90;;;;;;5074692;28;20036;-42
2022/04/29 02:49:43;;;;;;;12.18;4.95;;;2.00;99.90;;;;;;5074445;28;20442;-42
2022/04/29 02:52:10;;;;;;;9.32;5.75;;;2.00;99.90;;;;;;5074507;28;20067;-43
2022/04/29 02:54:37;;;;;;;11.20;5.60;;;2.00;99.90;;;;;;5074101;28;20040;-43
2022/04/29 02:57:03;;;;;;;14.95;5.85;;;2.00;99.90;;;;;;5074400;28;20371;-42
2022/04/29 02:59:29;;;;;;;15.77;7.43;;;2.00;99.90;;;;;;5074731;28;20044;-42
2022/04/29 03:01:55;;;;;;;9.88;5.50;;;2.10;99.90;;;;;;5074224;28;20391;-42
2022/04/29 03:04:20;;;;;;;12.40;6.47;;;2.10;99.90;;;;;;5074048;28;20048;-44
2022/04/29 03:06:46;;;;;;;12.73;5.80;;;2.10;99.90;;;;;;5074064;28;20040;-42
2022/04/29 03:09:12;;;;;;;11.13;5.65;;;2.10;99.90;;;;;;5073949;28;20124;-42
2022/04/29 03:11:39;;;;;;;10.88;6.03;;;2.10;99.90;;;;;;5073944;28;20043;-42
2022/04/29 03:14:05;;;;;;;10.68;5.60;;;2.10;99.90;;;;;;5074180;28;20071;-42
2022/04/29 03:16:31;;;;;;;9.70;6.00;;;2.10;99.90;;;;;;5074043;28;20475;-44
2022/04/29 03:18:57;;;;;;;14.10;7.00;;;2.10;99.90;;;;;;5074244;28;20063;-42
2022/04/29 03:21:23;;;;;;;13.25;7.63;;;2.00;99.90;;;;;;5073824;28;20437;-42
2022/04/29 03:23:49;;;;;;;13.07;7.70;;;2.00;99.90;;;;;;5074048;28;20450;-43
2022/04/29 03:26:15;;;;;;;14.43;7.25;;;2.10;99.90;;;;;;5073939;28;20071;-43
2022/04/29 03:28:41;;;;;;;16.02;7.53;;;2.10;99.90;;;;;;5074265;28;20047;-44
2022/04/29 03:31:07;;;;;;;13.05;7.43;;;2.20;99.90;;;;;;5073746;28;20036;-44
2022/04/29 03:33:33;;;;;;;14.57;7.90;;;2.20;99.90;;;;;;5074040;28;20045;-42
2022/04/29 03:35:59;;;;;;;14.32;8.13;;;2.20;99.90;;;;;;5073516;28;20037;-43
2022/04/29 03:38:25;;;;;;;12.40;6.55;;;2.20;99.90;;;;;;5073390;28;20121;-43
2022/04/29 03:40:52;;;;;;;11.52;7.45;;;2.10;99.90;;;;;;5073475;28;20545;-42
2022/04/29 03:43:18;;;;;;;11.90;7.57;;;2.00;99.90;;;;;;5073091;28;20063;-43
2022/04/29 03:45:45;;;;;;;15.52;8.15;;;2.00;99.90;;;;;;5073341;28;20402;-43
2022/04/29 03:48:11;;;;;;;14.02;7.72;;;2.00;99.90;;;;;;5073577;28;20045;-43
2022/04/29 03:50:38;;;;;;;18.33;9.38;;;2.00;99.90;;;;;;5073640;28;20036;-42
2022/04/29 03:53:05;;;;;;;12.32;8.02;;;2.00;99.90;;;;;;5073502;28;20040;-43
2022/04/29 03:55:32;;;;;;;14.50;8.10;;;2.00;99.90;;;;;;5073711;28;20130;-42
2022/04/29 03:57:59;;;;;;;14.40;8.45;;;2.20;99.90;;;;;;5072673;28;20052;-43
2022/04/29 04:00:29;;;;;;;15.60;8.48;;;2.30;99.90;;;;;;5073356;28;20044;-42
2022/04/29 04:02:55;;;;;;;17.02;9.48;;;2.30;99.90;;;;;;5072861;28;20047;-42
2022/04/29 04:05:21;;;;;;;19.92;10.25;;;2.30;99.90;;;;;;5073517;28;20049;-43
2022/04/29 04:07:46;;;;;;;18.05;8.80;;;2.30;99.90;;;;;;5073498;28;20041;-42
2022/04/29 04:10:13;;;;;;;16.67;9.07;;;2.40;99.90;;;;;;5072663;28;20395;-42
2022/04/29 04:12:43;;;;;;;14.52;8.68;;;2.40;99.90;;;;;;5073628;28;20110;-43
2022/04/29 04:15:11;;;;;;;17.60;9.20;;;2.50;99.90;;;;;;5073324;28;20040;-42
2022/04/29 04:17:37;;;;;;;19.65;9.77;;;2.50;99.90;;;;;;5072957;28;20048;-43
2022/04/29 04:20:05;;;;;;;16.73;8.88;;;2.50;99.90;;;;;;5072835;28;20573;-42
2022/04/29 04:22:32;;;;;;;19.90;9.70;;;2.60;99.90;;;;;;5073073;28;20062;-42
2022/04/29 04:24:59;;;;;;;16.98;10.73;;;2.70;99.90;;;;;;5073118;28;20048;-43
2022/04/29 04:27:25;;;;;;;21.33;9.68;;;2.70;99.90;;;;;;5073187;28;20111;-42
2022/04/29 04:29:51;;;;;;;17.75;9.65;;;2.80;99.90;;;;;;5072999;28;20036;-42
2022/04/29 04:32:16;;;;;;;17.85;9.35;;;2.80;99.90;;;;;;5072480;28;20372;-43
2022/04/29 04:34:52;;;;;;;16.50;9.40;;;2.90;99.90;;;;;;5072790;28;20079;-42
2022/04/29 04:37:22;;;;;;;17.10;9.60;;;2.90;99.90;;;;;;5071067;28;20068;-43
2022/04/29 04:39:48;;;;;;;19.17;9.98;;;3.10;99.90;;;;;;5072915;28;20102;-42
2022/04/29 04:42:14;;;;;;;16.00;9.27;;;3.00;99.90;;;;;;5072379;28;20040;-43
2022/04/29 04:44:41;;;;;;;15.77;9.57;;;3.20;99.90;;;;;;5072445;28;20094;-42
2022/04/29 04:47:07;;;;;;;18.95;9.35;;;3.20;99.90;;;;;;5072268;28;20124;-43
2022/04/29 04:49:33;;;;;;;18.45;9.68;;;3.30;99.90;;;;;;5072922;28;20041;-43
2022/04/29 04:51:59;;;;;;;16.48;9.93;;;3.40;99.90;;;;;;5073150;28;20064;-43
2022/04/29 04:54:24;;;;;;;18.55;9.73;;;3.30;99.90;;;;;;5072548;28;20458;-43
2022/04/29 04:56:50;;;;;;;22.05;9.60;;;3.50;99.90;;;;;;5072575;28;20044;-43
2022/04/29 04:59:16;;;;;;;31.27;9.60;;;3.60;99.90;;;;;;5072696;28;20768;-43
2022/04/29 05:01:42;;;;;;;20.98;10.60;;;3.70;99.90;;;;;;5072683;28;20032;-42
2022/04/29 05:04:07;;;;;;;20.67;10.82;;;4.00;99.90;;;;;;5072811;28;20036;-43
2022/04/29 05:06:36;;;;;;;20.63;9.77;;;3.90;99.90;;;;;;5072648;28;20040;-43
2022/04/29 05:09:01;;;;;;;18.75;10.18;;;4.00;99.90;;;;;;5072746;28;20051;-43
2022/04/29 05:11:27;;;;;;;28.73;10.70;;;4.40;99.90;;;;;;5072238;28;20040;-43
2022/04/29 05:13:53;;;;;;;21.70;11.43;;;4.40;99.90;;;;;;5072529;28;20037;-43
2022/04/29 05:16:18;;;;;;;12.85;9.35;;;4.60;99.90;;;;;;5072296;28;20044;-44
2022/04/29 05:18:44;;;;;;;15.73;9.80;;;4.80;99.90;;;;;;5072537;28;20094;-43
2022/04/29 05:21:09;;;;;;;18.63;10.55;;;5.00;99.90;;;;;;5072438;28;20041;-44
2022/04/29 05:23:36;;;;;;;17.05;9.77;;;5.30;99.90;;;;;;5075644;28;20044;-44
2022/04/29 05:26:03;;;;;;;18.33;11.13;;;5.20;99.90;;;;;;5075935;28;20087;-43
2022/04/29 05:28:28;;;;;;;23.55;11.30;;;5.50;99.90;;;;;;5075893;28;20480;-43
2022/04/29 05:30:56;;;;;;;16.85;10.30;;;6.20;99.90;;;;;;5076471;28;20047;-44
2022/04/29 05:33:25;;;;;;;17.23;10.93;;;6.20;99.90;;;;;;5076192;28;20467;-43
2022/04/29 05:35:51;;;;;;;27.08;11.25;;;6.30;99.90;;;;;;5076387;28;20044;-43
2022/04/29 05:38:17;;;;;;;21.90;11.52;;;7.40;99.90;;;;;;5076033;28;20102;-43
2022/04/29 05:43:28;;;;;;;16.13;9.48;;;7.40;99.90;;;;;;5076051;28;20106;-43
2022/04/29 05:45:54;;;;;;;20.77;9.80;;;7.90;99.90;;;;;;5076152;28;20094;-44
2022/04/29 05:48:20;;;;;;;14.50;8.73;;;8.20;99.90;;;;;;5076293;28;20481;-44
2022/04/29 05:50:46;;;;;;;21.33;10.75;;;8.60;99.90;;;;;;5076004;28;20040;-43
2022/04/29 05:53:12;;;;;;;15.23;8.52;;;9.80;99.90;;;;;;5076285;28;20364;-44
2022/04/29 05:55:38;;;;;;;13.90;7.80;;;10.60;99.90;;;;;;5076006;28;20098;-44
2022/04/29 05:58:05;;;;;;;15.45;7.60;;;10.60;99.90;;;;;;5075879;28;20442;-45
2022/04/29 06:00:30;;;;;;;13.35;7.13;;;10.80;99.90;;;;;;5076432;28;20436;-43
2022/04/29 06:02:56;;;;;;;12.85;6.07;;;10.90;99.90;;;;;;5075761;28;20076;-44
2022/04/29 06:05:22;;;;;;;18.08;6.30;;;10.80;99.90;;;;;;5076226;28;20126;-46
2022/04/29 06:07:48;;;;;;;12.60;5.35;;;11.20;99.90;;;;;;5075788;28;20037;-44
2022/04/29 06:10:14;;;;;;;7.65;5.30;;;10.40;99.90;;;;;;5076088;28;20443;-45
2022/04/29 06:12:41;;;;;;;11.05;6.10;;;10.30;99.90;;;;;;5076060;28;20025;-44
2022/04/29 06:15:07;;;;;;;12.10;5.85;;;10.30;99.90;;;;;;5076160;28;20082;-44
2022/04/29 06:17:33;;;;;;;7.78;4.05;;;10.40;99.90;;;;;;5075643;28;20040;-44
2022/04/29 06:19:59;;;;;;;7.97;3.97;;;10.40;99.90;;;;;;5075478;28;20131;-44
2022/04/29 06:22:24;;;;;;;6.63;4.03;;;10.40;99.90;;;;;;5076044;28;20044;-45
2022/04/29 06:24:50;;;;;;;7.03;3.30;;;10.30;99.90;;;;;;5075631;28;20040;-43
2022/04/29 06:27:16;;;;;;;9.23;3.50;;;10.10;99.90;;;;;;5075285;28;20043;-44
2022/04/29 06:29:42;;;;;;;8.77;2.70;;;10.20;99.90;;;;;;5074468;28;20040;-43
2022/04/29 06:32:08;;;;;;;9.35;3.45;;;10.10;99.90;;;;;;5075585;28;20356;-43
2022/04/29 06:34:34;;;;;;;5.97;2.50;;;10.10;99.90;;;;;;5075442;28;20112;-43
2022/04/29 06:37:00;;;;;;;6.82;2.50;;;10.00;99.90;;;;;;5075063;28;20056;-44
2022/04/29 06:39:26;;;;;;;4.38;2.38;;;10.00;99.90;;;;;;5074111;28;20123;-44
2022/04/29 06:41:51;;;;;;;5.60;1.90;;;10.10;99.90;;;;;;5074498;28;20041;-44
2022/04/29 06:44:17;;;;;;;6.32;1.55;;;10.60;99.90;;;;;;5074375;28;20056;-43
2022/04/29 06:46:44;;;;;;;8.90;2.67;;;10.20;99.90;;;;;;5074437;28;20076;-43
2022/04/29 06:49:10;;;;;;;8.18;2.60;;;10.20;99.90;;;;;;5074214;28;20055;-44
2022/04/29 06:51:35;;;;;;;8.80;1.92;;;10.30;99.90;;;;;;5074392;28;20036;-44
2022/04/29 06:54:01;;;;;;;4.18;1.20;;;10.00;99.90;;;;;;5072558;28;20478;-45
2022/04/29 06:56:27;;;;;;;6.25;1.75;;;10.30;99.90;;;;;;5074022;28;20387;-44
2022/04/29 06:58:53;;;;;;;8.18;2.88;;;10.20;99.90;;;;;;5074192;28;20402;-44
2022/04/29 07:01:19;;;;;;;6.50;2.40;;;10.20;99.90;;;;;;5073283;28;20115;-44
2022/04/29 07:03:45;;;;;;;5.78;2.08;;;10.20;99.90;;;;;;5073291;28;20048;-43
2022/04/29 07:06:10;;;;;;;8.38;2.25;;;10.10;99.90;;;;;;5073284;28;20055;-44
2022/04/29 07:08:36;;;;;;;8.30;1.95;;;10.30;99.90;;;;;;5073262;28;20546;-44
2022/04/29 07:11:03;;;;;;;8.65;2.30;;;10.10;99.90;;;;;;5072329;28;20045;-44
2022/04/29 07:13:29;;;;;;;6.97;1.83;;;10.00;99.90;;;;;;5072498;28;20438;-44
2022/04/29 07:15:55;;;;;;;7.57;2.50;;;10.00;99.90;;;;;;5073331;28;20045;-43
2022/04/29 07:18:20;;;;;;;5.32;1.45;;;10.00;99.90;;;;;;5073123;28;20487;-43
2022/04/29 07:20:46;;;;;;;7.05;1.52;;;9.90;99.90;;;;;;5073607;28;20048;-43
2022/04/29 07:23:12;;;;;;;5.85;1.13;;;9.90;99.90;;;;;;5073522;28;20048;-43
2022/04/29 07:25:38;;;;;;;7.70;1.45;;;10.30;99.90;;;;;;5073166;28;20052;-44
2022/04/29 07:28:04;;;;;;;7.85;2.25;;;10.00;99.90;;;;;;5072966;28;20075;-43
2022/04/29 07:30:30;;;;;;;6.97;1.13;;;10.10;99.90;;;;;;5072537;28;20047;-43
2022/04/29 07:32:55;;;;;;;7.10;1.63;;;10.10;99.90;;;;;;5073135;28;20387;-43
2022/04/29 07:43:39;;;;;;;3.65;1.58;;;11.10;99.90;;;;;;5073886;28;20048;-45
2022/04/29 07:46:05;;;;;;;8.48;1.77;;;11.30;99.90;;;;;;5073207;28;20530;-43
2022/04/29 07:48:30;;;;;;;4.38;1.33;;;12.00;98.40;;;;;;5073779;28;20479;-43
2022/04/29 07:50:57;;;;;;;7.05;1.40;;;11.60;97.40;;;;;;5073665;28;20044;-43
2022/04/29 07:53:22;;;;;;;7.22;1.85;;;12.00;98.00;;;;;;5073744;28;20040;-43
2022/04/29 07:55:48;;;;;;;4.50;1.58;;;12.40;97.80;;;;;;5073712;28;20110;-44
2022/04/29 07:58:14;;;;;;;5.65;1.20;;;12.40;96.00;;;;;;5073628;28;20093;-43
2022/04/29 08:00:40;;;;;;;6.65;1.40;;;12.80;95.00;;;;;;5074119;28;20040;-43
2022/04/29 08:03:06;;;;;;;3.58;1.13;;;12.60;95.00;;;;;;5073892;28;20040;-44
2022/04/29 08:05:32;;;;;;;3.70;1.20;;;12.70;94.80;;;;;;5073576;28;20055;-44
2022/04/29 08:08:01;;;;;;;3.50;0.95;;;12.70;94.50;;;;;;5073409;28;20487;-44
2022/04/29 08:10:32;;;;;;;3.08;0.80;;;12.90;94.30;;;;;;5073199;28;20483;-43
2022/04/29 08:13:03;;;;;;;5.68;1.45;;;13.00;93.50;;;;;;5073651;28;20048;-43
2022/04/29 08:15:31;;;;;;;8.33;1.10;;;13.10;92.90;;;;;;5073707;28;20352;-43
2022/04/29 08:17:57;;;;;;;4.03;1.00;;;13.20;91.90;;;;;;5073329;28;20037;-43
2022/04/29 08:20:24;;;;;;;2.80;0.70;;;13.30;91.70;;;;;;5073616;28;20036;-45
2022/04/29 08:22:50;;;;;;;2.25;0.70;;;13.50;91.10;;;;;;5072995;28;20072;-44
2022/04/29 08:25:18;;;;;;;4.13;0.77;;;13.60;87.60;;;;;;5073305;28;20041;-45
2022/04/29 08:27:44;;;;;;;5.80;0.75;;;13.90;87.30;;;;;;5073391;28;20040;-44
2022/04/29 08:30:10;;;;;;;3.78;0.80;;;14.10;85.90;;;;;;5072986;28;20108;-43
2022/04/29 08:32:46;;;;;;;5.65;1.63;;;14.90;87.10;;;;;;5072945;28;20028;-44
2022/04/29 08:35:13;;;;;;;6.68;0.98;;;15.10;89.10;;;;;;5073258;28;20044;-44
2022/04/29 08:37:40;;;;;;;3.65;1.10;;;15.70;87.80;;;;;;5073152;28;20064;-43
2022/04/29 08:40:08;;;;;;;9.70;1.33;;;16.20;85.50;;;;;;5073097;28;20044;-43
2022/04/29 08:42:38;;;;;;;5.75;1.13;;;16.40;81.80;;;;;;5073431;28;20443;-44
2022/04/29 08:45:16;;;;;;;5.13;1.10;;;17.40;78.80;;;;;;5073094;28;20087;-44
2022/04/29 08:47:44;;;;;;;4.63;1.02;;;18.60;74.10;;;;;;5072936;28;20528;-43
2022/04/29 08:50:15;;;;;;;5.38;0.82;;;18.80;70.10;;;;;;5073284;28;20029;-44
2022/04/29 08:52:42;;;;;;;4.47;0.93;;;18.70;69.20;;;;;;5072694;28;20051;-44
2022/04/29 09:00:47;;;;;;;6.28;1.08;;;18.00;68.80;;;;;;5071745;28;20059;-45
2022/04/29 09:03:18;;;;;;;5.63;0.80;;;18.00;69.00;;;;;;5070965;28;20044;-44
2022/04/29 09:05:45;;;;;;;5.43;1.30;;;18.00;67.40;;;;;;5069931;28;20043;-43
2022/04/29 09:08:18;;;;;;;5.30;0.75;;;18.20;67.80;;;;;;5071142;28;20115;-45
2022/04/29 09:10:53;;;;;;;5.70;1.23;;;18.20;66.70;;;;;;5071040;28;20045;-44
2022/04/29 09:13:24;;;;;;;5.85;1.35;;;18.10;65.20;;;;;;5070448;28;20521;-46
2022/04/29 09:15:57;;;;;;;5.13;1.00;;;18.00;65.70;;;;;;5069840;28;20052;-44
2022/04/29 09:18:33;;;;;;;5.05;1.02;;;18.00;66.10;;;;;;5070434;28;20040;-44
2022/04/29 09:21:04;;;;;;;6.97;1.00;;;17.80;64.00;;;;;;5071145;28;20048;-44
2022/04/29 09:23:31;;;;;;;5.40;1.25;;;17.40;64.30;;;;;;5070762;28;20074;-47
2022/04/29 09:26:01;;;;;;;3.95;0.65;;;17.10;65.70;;;;;;5071072;28;20133;-43
2022/04/29 09:28:27;;;;;;;6.75;1.30;;;16.90;65.30;;;;;;5070243;28;20044;-44
2022/04/29 09:30:56;;;;;;;3.55;0.80;;;16.50;66.30;;;;;;5070195;28;20493;-44
2022/04/29 09:33:24;;;;;;;4.95;0.63;;;16.30;66.40;;;;;;5070659;28;20047;-44
2022/04/29 09:35:50;;;;;;;4.70;0.93;;;15.90;66.20;;;;;;5070612;28;20434;-43
2022/04/29 09:41:01;;;;;;;4.63;1.20;;;15.40;65.60;;;;;;5070697;28;20195;-44
2022/04/29 09:43:43;;;;;;;3.50;1.00;;;15.40;67.80;;;;;;5069418;28;20028;-44
2022/04/29 09:46:15;;;;;;;4.43;1.17;;;15.70;68.60;;;;;;5070039;28;20047;-44
2022/04/29 09:48:58;;;;;;;3.92;0.70;;;16.20;67.90;;;;;;5070607;28;20055;-44
2022/04/29 09:51:44;;;;;;;2.75;0.80;;;16.60;65.60;;;;;;5070565;28;20040;-44
2022/04/29 09:54:23;;;;;;;3.92;0.93;;;16.70;63.90;;;;;;5070137;28;20372;-45
2022/04/29 09:57:14;;;;;;;5.22;1.40;;;16.50;63.70;;;;;;5070290;28;20082;-43
2022/04/29 09:59:59;;;;;;;3.10;1.23;;;16.40;64.70;;;;;;5070455;28;20119;-44
2022/04/29 10:02:29;;;;;;;4.22;0.80;;;16.40;65.60;;;;;;5070612;28;20067;-45
2022/04/29 10:04:55;;;;;;;4.50;1.25;;;16.30;65.30;;;;;;5070581;28;20067;-44
2022/04/29 10:07:23;;;;;;;3.40;0.90;;;16.30;64.90;;;;;;5070102;28;20437;-44
2022/04/29 10:09:53;;;;;;;3.10;0.70;;;16.30;65.50;;;;;;5072102;28;20051;-45
2022/04/29 10:12:21;;;;;;;9.27;1.50;;;16.10;65.30;;;;;;5073820;28;20118;-44
2022/04/29 10:14:48;;;;;;;1.75;0.73;;;16.10;66.10;;;;;;5073994;28;20368;-45
2022/04/29 10:23:05;;;;;;;3.03;1.30;;;16.20;65.10;;;;;;5073669;28;20116;-43
2022/04/29 10:25:32;;;;;;;6.18;1.63;;;16.20;66.10;;;;;;5074318;28;20055;-44
2022/04/29 10:28:00;;;;;;;5.63;1.33;;;16.10;66.40;;;;;;5074019;28;20044;-43
2022/04/29 10:30:28;;;;;;;4.75;1.35;;;16.00;66.20;;;;;;5073832;28;20033;-43
2022/04/29 10:33:08;;;;;;;3.88;1.10;;;15.80;66.50;;;;;;5073709;28;20514;-44
2022/04/29 10:35:49;;;;;;;3.63;0.75;;;15.70;66.70;;;;;;5065443;28;20048;-44
2022/04/29 10:38:58;;;;;;;9.45;1.70;;;15.70;67.10;;;;;;5048208;28;20109;-43
2022/04/29 10:41:31;;;;;;;4.25;1.00;;;15.70;66.90;;;;;;5070596;28;20084;-44
2022/04/29 10:44:00;;;;;;;4.88;0.85;;;15.60;66.60;;;;;;5070847;28;20054;-46
2022/04/29 10:46:36;;;;;;;9.30;1.52;;;15.60;66.90;;;;;;5068780;28;20079;-47
2022/04/29 10:49:23;;;;;;;9.77;1.13;;;15.50;67.10;;;;;;5070063;28;20045;-42
2022/04/29 10:51:56;;;;;;;2.55;0.85;;;15.50;66.10;;;;;;5070936;28;20387;-44
2022/04/29 10:54:33;;;;;;;12.35;2.15;;;15.00;67.00;;;;;;5070600;28;20493;-47
2022/04/29 10:57:07;;;;;;;7.78;1.42;;;14.90;67.40;;;;;;5070881;28;20040;-44
2022/04/29 10:59:54;;;;;;;4.95;1.25;;;14.90;67.90;;;;;;5071135;28;20037;-44
2022/04/29 11:02:32;;;;;;;5.22;0.90;;;14.90;68.60;;;;;;5071526;28;20037;-39
2022/04/29 11:05:03;;;;;;;2.40;0.82;;;14.90;67.50;;;;;;5071476;28;20044;-39
2022/04/29 11:07:42;;;;;;;4.10;1.50;;;14.90;67.40;;;;;;5071452;28;20479;-39
2022/04/29 11:10:21;;;;;;;9.30;3.10;;;15.00;68.10;;;;;;5071695;28;20072;-39
2022/04/29 11:13:03;;;;;;;9.65;2.10;;;15.00;68.00;;;;;;5071532;28;20044;-39
2022/04/29 11:15:43;;;;;;;4.37;1.90;;;15.00;69.00;;;;;;5071452;28;20391;-39
2022/04/29 11:18:16;;;;;;;7.50;1.83;;;15.10;68.30;;;;;;5072168;28;20270;-39
2022/04/29 11:20:46;;;;;;;5.43;2.08;;;15.10;68.50;;;;;;5070869;28;20040;-39
2022/04/29 11:25:58;;;;;;;5.57;1.85;;;15.20;68.60;;;;;;5067193;28;20064;-44
2022/04/29 11:28:26;;;;;;;5.22;2.78;;;15.20;68.70;;;;;;5069139;28;20067;-47
2022/04/29 11:31:06;;;;;;;6.80;2.50;;;15.20;68.50;;;;;;5069193;28;20045;-45
2022/04/29 11:33:32;;;;;;;5.22;2.45;;;15.10;68.40;;;;;;5070156;28;20036;-44
2022/04/29 11:36:12;;;;;;;6.65;2.38;;;15.10;69.10;;;;;;5068911;28;20072;-46
2022/04/29 11:38:46;;;;;;;3.13;1.90;;;15.20;69.70;;;;;;5070045;28;20061;-43
2022/04/29 11:41:20;;;;;;;10.57;2.13;;;15.10;69.00;;;;;;5070608;28;20395;-43
2022/04/29 11:43:50;;;;;;;4.07;2.15;;;15.10;69.50;;;;;;5070138;28;20072;-43
2022/04/29 11:46:16;;;;;;;5.20;2.03;;;15.00;68.70;;;;;;5070201;28;20046;-45
2022/04/29 11:48:57;;;;;;;3.55;1.83;;;15.00;69.20;;;;;;5070251;28;20032;-44
2022/04/29 11:51:24;;;;;;;9.02;2.50;;;14.90;69.20;;;;;;5070124;28;20135;-44
2022/04/29 11:54:00;;;;;;;7.25;2.80;;;14.90;69.40;;;;;;5069726;28;20491;-44
2022/04/29 11:56:35;;;;;;;6.18;2.28;;;14.90;69.30;;;;;;5069451;28;20044;-43
2022/04/29 11:59:07;;;;;;;3.58;2.13;;;14.70;68.90;;;;;;5069264;28;20052;-44
2022/04/29 12:01:33;;;;;;;5.00;2.60;;;14.90;69.10;;;;;;5069610;28;20391;-44
2022/04/29 12:03:59;;;;;;;6.90;2.00;;;15.00;69.20;;;;;;5069181;28;20400;-43
2022/04/29 12:06:25;;;;;;;5.53;2.67;;;15.10;68.80;;;;;;5068784;28;20426;-44
2022/04/29 12:08:51;;;;;;;4.57;2.35;;;15.20;68.90;;;;;;5069292;28;20075;-42
2022/04/29 12:11:29;;;;;;;6.93;2.10;;;15.50;68.90;;;;;;5069626;28;20044;-42
2022/04/29 12:13:55;;;;;;;6.60;2.35;;;15.70;68.10;;;;;;5069873;28;20111;-44
2022/04/29 12:16:21;;;;;;;3.35;2.15;;;15.80;68.40;;;;;;5069623;28;20463;-44
2022/04/29 12:18:48;;;;;;;9.18;2.33;;;15.90;67.90;;;;;;5069500;28;20506;-44
2022/04/29 12:21:22;;;;;;;7.60;2.95;;;15.90;67.40;;;;;;5069404;28;20040;-43
2022/04/29 12:23:48;;;;;;;10.02;2.38;;;16.00;66.60;;;;;;5069656;28;20072;-43
2022/04/29 12:26:14;;;;;;;3.35;2.00;;;16.00;66.70;;;;;;5069074;28;20152;-42
2022/04/29 12:28:40;;;;;;;9.63;2.90;;;16.00;66.70;;;;;;5069274;28;20370;-43
2022/04/29 12:36:59;;;;;;;5.35;2.60;;;15.90;66.40;;;;;;5068512;28;20507;-43
2022/04/29 12:39:39;;;;;;;6.70;2.13;;;15.80;66.50;;;;;;5069168;28;20110;-43
2022/04/29 12:42:06;;;;;;;6.50;2.33;;;15.80;65.80;;;;;;5068781;28;20432;-44
2022/04/29 12:45:04;;;;;;;4.97;2.28;;;15.70;66.00;;;;;;5068871;28;20495;-43
2022/04/29 12:47:49;;;;;;;5.22;2.25;;;16.00;66.50;;;;;;5069033;28;20087;-44
2022/04/29 12:50:24;;;;;;;8.65;2.67;;;15.90;66.40;;;;;;5068811;28;20113;-43
2022/04/29 12:53:01;;;;;;;9.27;2.22;;;16.00;65.50;;;;;;5068575;28;20052;-43
2022/04/29 12:55:30;;;;;;;7.43;3.00;;;16.10;65.90;;;;;;5068463;28;20051;-43
2022/04/29 12:58:03;;;;;;;7.13;2.30;;;16.20;65.00;;;;;;5068582;28;20083;-44
2022/04/29 13:00:28;;;;;;;;;;;16.20;65.00;;;;;;5069441;28;20093;-42
2022/04/29 13:03:03;;;;;;;5.25;2.08;;;16.20;63.20;;;;;;5068805;28;19920;-43
2022/04/29 13:05:30;;;;;;;3.08;1.48;;;16.20;64.90;;;;;;5068810;28;20056;-44
2022/04/29 13:07:55;;;;;;;10.30;2.63;;;16.20;64.50;;;;;;5068713;28;20044;-43
2022/04/29 13:10:22;;;;;;;5.93;1.58;;;16.10;64.70;;;;;;5067878;28;20384;-42
2022/04/29 13:12:48;;;;;;;6.82;1.75;;;16.10;64.60;;;;;;5068342;28;20040;-43
2022/04/29 13:15:14;;;;;;;9.88;2.20;;;16.10;64.80;;;;;;5068403;28;20090;-43
2022/04/29 13:17:40;;;;;;;8.52;1.67;;;16.10;64.50;;;;;;5068274;28;20127;-43
2022/04/29 13:20:08;;;;;;;9.45;2.55;;;16.00;64.40;;;;;;5068133;28;20131;-43
2022/04/29 13:22:35;;;;;;;4.32;1.48;;;16.00;64.30;;;;;;5068026;28;20040;-44
2022/04/29 13:25:01;;;;;;;6.88;1.80;;;16.00;63.90;;;;;;5068702;28;20048;-44